Observations for Trim Market St
| Time | AQI | Temp °C | Hum % | Pres Pa | CO μg/m³ | H₂S μg/m³ | NO μg/m³ | NO₂ μg/m³ | O₃ μg/m³ | SO₂ μg/m³ | PM1 μg/m³ | PM2.5 μg/m³ | PM10 μg/m³ |
|---|---|---|---|---|---|---|---|---|---|---|---|---|---|
| Sunday 12 July 2026 | |||||||||||||
| 21:33 | 2 | 23.2 | 57 | 57,917 | 0 | 0 | 0 | 8.27 | 27.38 | 0 | 1.43 | 4.19 | 5.41 |
| 21:32 | 2 | 23.3 | 56 | 57,915 | 0 | 0 | 0 | 9.55 | 27.51 | 0 | 1.43 | 3.69 | 4.7 |
| 21:31 | 2 | 23.3 | 56 | 57,911 | 0 | 0 | 0 | 5.66 | 29.73 | 0 | 1.43 | 3.19 | 4.7 |
| 21:24 | 2 | 23.5 | 56 | 57,853 | 0 | 0 | 0 | 8.39 | 28.63 | 0 | 1.43 | 3.73 | 4.68 |
| 21:23 | 2 | 23.5 | 56 | 57,833 | 0 | 0 | 0 | 6.29 | 29.29 | 0 | 1.43 | 3.73 | 4.68 |
| 21:21 | 2 | 23.6 | 55 | 57,783 | 0 | 0 | 0 | 5.8 | 28.95 | 0 | 2.14 | 4.25 | 5.39 |
| 21:20 | 2 | 23.6 | 55 | 57,749 | 0 | 0 | 0 | 7.81 | 32.83 | 0 | 3.56 | 4.76 | 6.1 |
| 21:19 | 2 | 23.6 | 55 | 57,700 | 0 | 0 | 0 | 6.12 | 30.72 | 0 | 1.43 | 3.75 | 4.67 |
| 21:18 | 2 | 23.7 | 55 | 57,642 | 0 | 0 | 0 | 7.39 | 29.23 | 0 | 2.85 | 4.77 | 6.1 |
| 21:17 | 2 | 23.7 | 55 | 57,588 | 0 | 0 | 0 | 6.61 | 29.13 | 0 | 0.71 | 3.25 | 3.95 |
| 21:16 | 2 | 23.7 | 55 | 57,550 | 0 | 0 | 0 | 7.22 | 29.95 | 0 | 1.43 | 4.27 | 6.1 |
| 21:15 | 2 | 23.8 | 55 | 57,488 | 0 | 0 | 0 | 6.6 | 29.3 | 0 | 0.71 | 2.75 | 3.23 |
| 21:14 | 2 | 23.8 | 55 | 57,436 | 0 | 0 | 0 | 7.1 | 30.45 | 0 | 1.43 | 4.27 | 6.09 |
| 21:13 | 2 | 23.8 | 55 | 57,367 | 0 | 0 | 0 | 6.91 | 28.69 | 0 | 1.43 | 3.26 | 4.66 |
| 21:12 | 2 | 23.9 | 55 | 57,290 | 0 | 0 | 0 | 9.8 | 30.87 | 0 | 0.71 | 2.76 | 3.22 |
| 21:11 | 2 | 23.9 | 54 | 57,207 | 0 | 0 | 0 | 5.72 | 32.72 | 0 | 2.14 | 3.78 | 4.65 |
| 21:08 | 2 | 24 | 54 | 57,120 | 0 | 0 | 0 | 6 | 29.47 | 0 | 0 | 2.77 | 3.21 |
| 21:07 | 2 | 24 | 54 | 57,054 | 0 | 0 | 0 | 6.82 | 33.23 | 0 | 0.71 | 2.78 | 3.21 |
| 21:06 | 2 | 24 | 54 | 56,992 | 0 | 0 | 0 | 5.83 | 28.05 | 0 | 0.71 | 3.29 | 3.92 |
| 21:05 | 2 | 24.1 | 54 | 56,956 | 0 | 0 | 0 | 8 | 33.93 | 0 | 1.43 | 4.31 | 5.37 |